createdAt,value
2018-03-17T00:01:56.568Z,1.84
2018-03-17T00:04:47.307Z,1.59
2018-03-17T00:07:16.347Z,1.44
2018-03-17T00:09:46.295Z,1.28
2018-03-17T00:12:15.338Z,1.33
2018-03-17T00:14:45.274Z,1.11
2018-03-17T00:17:14.666Z,1.12
2018-03-17T00:19:46.830Z,1.03
2018-03-17T00:22:15.893Z,1.13
2018-03-17T00:24:46.918Z,1.07
2018-03-17T00:27:29.447Z,1.14
2018-03-17T00:29:58.462Z,1.08
2018-03-17T00:32:27.758Z,1.17
2018-03-17T00:34:56.791Z,1.15
2018-03-17T00:37:25.882Z,1.19
2018-03-17T00:39:54.934Z,1.02
2018-03-17T00:42:34.571Z,1.04
2018-03-17T00:45:03.620Z,1.11
2018-03-17T00:47:32.658Z,1.00
2018-03-17T00:50:01.747Z,1.04
2018-03-17T00:52:32.935Z,0.98
2018-03-17T00:55:01.992Z,1.10
2018-03-17T00:57:38.854Z,1.17
2018-03-17T01:00:08.078Z,1.01
2018-03-17T01:02:37.107Z,1.10
2018-03-17T01:05:06.158Z,1.07
2018-03-17T01:07:35.245Z,1.14
2018-03-17T01:10:04.510Z,1.08
2018-03-17T01:12:33.551Z,0.99
2018-03-17T01:17:38.311Z,1.01
2018-03-17T01:20:08.276Z,0.86
2018-03-17T01:22:49.495Z,0.84
2018-03-17T01:25:18.542Z,0.65
2018-03-17T01:29:52.916Z,0.72
2018-03-17T01:32:22.062Z,0.76
2018-03-17T01:34:55.259Z,0.67
2018-03-17T01:37:24.603Z,0.79
2018-03-17T01:39:54.539Z,0.89
2018-03-17T01:42:23.600Z,0.95
2018-03-17T01:44:54.563Z,1.02
2018-03-17T01:47:23.610Z,0.95
2018-03-17T01:49:54.558Z,1.00
2018-03-17T01:52:23.598Z,1.03
2018-03-17T01:54:52.635Z,0.94
2018-03-17T01:57:21.688Z,1.02
2018-03-17T01:59:59.239Z,0.93
2018-03-17T02:02:41.118Z,1.01
2018-03-17T02:05:10.166Z,0.97
2018-03-17T02:07:47.187Z,1.03
2018-03-17T02:10:16.270Z,0.97
2018-03-17T02:12:53.072Z,1.01
2018-03-17T02:15:22.164Z,0.94
2018-03-17T02:20:41.325Z,1.07
2018-03-17T02:23:10.432Z,1.10
2018-03-17T02:28:24.145Z,1.08
2018-03-17T02:31:07.179Z,1.16
2018-03-17T02:36:15.391Z,1.21
2018-03-17T02:38:45.435Z,1.12
2018-03-17T02:41:14.643Z,1.15
2018-03-17T02:46:19.317Z,1.17
2018-03-17T02:48:48.691Z,1.02
2018-03-17T02:51:17.718Z,1.07
2018-03-17T02:53:46.751Z,1.12
2018-03-17T02:56:15.955Z,1.13
2018-03-17T03:01:23.186Z,0.92
2018-03-17T03:03:53.157Z,0.81
2018-03-17T03:06:22.289Z,0.96
2018-03-17T03:08:53.254Z,0.95
2018-03-17T03:11:22.294Z,0.98
2018-03-17T03:14:01.230Z,1.04
2018-03-17T03:19:09.540Z,0.88
2018-03-17T03:21:40.526Z,0.79
2018-03-17T03:24:09.562Z,0.89
2018-03-17T03:26:38.612Z,0.75
2018-03-17T03:29:08.590Z,0.76
2018-03-17T03:31:37.635Z,0.71
2018-03-17T03:34:07.610Z,0.76
2018-03-17T03:36:44.715Z,0.77
2018-03-17T03:39:13.858Z,0.65
2018-03-17T03:41:44.876Z,0.75
2018-03-17T03:44:13.940Z,0.60
2018-03-17T03:46:54.815Z,0.65
2018-03-17T03:49:23.839Z,0.46
2018-03-17T03:51:56.752Z,0.45
2018-03-17T03:54:25.812Z,0.65
2018-03-17T03:56:57.461Z,0.67
2018-03-17T03:59:26.500Z,0.58
2018-03-17T04:01:59.551Z,0.60
2018-03-17T04:07:06.864Z,0.80
2018-03-17T04:09:36.120Z,0.88
2018-03-17T04:12:05.160Z,0.76
2018-03-17T04:14:34.204Z,0.81
2018-03-17T04:17:10.627Z,0.87
2018-03-17T04:19:39.751Z,0.78
2018-03-17T04:24:45.550Z,0.90
2018-03-17T04:27:16.548Z,0.94
2018-03-17T04:29:45.603Z,0.84
2018-03-17T04:32:29.117Z,0.92
2018-03-17T04:34:59.074Z,1.05
2018-03-17T04:40:05.295Z,0.96
2018-03-17T04:42:34.348Z,1.04
2018-03-17T04:45:03.390Z,0.95
2018-03-17T04:47:32.435Z,0.95
2018-03-17T04:50:01.484Z,1.04
2018-03-17T04:52:30.528Z,1.02
2018-03-17T04:54:59.692Z,1.04
2018-03-17T04:57:29.644Z,0.92
2018-03-17T05:02:34.637Z,1.17
2018-03-17T05:05:04.599Z,1.09
2018-03-17T05:07:33.725Z,1.19
2018-03-17T05:10:06.688Z,1.11
2018-03-17T05:12:35.731Z,0.88
2018-03-17T05:15:05.183Z,0.87
2018-03-17T05:17:34.218Z,0.77
2018-03-17T05:22:39.095Z,0.88
2018-03-17T05:25:08.147Z,0.96
2018-03-17T05:27:38.268Z,0.89
2018-03-17T05:30:07.485Z,0.96
2018-03-17T05:32:36.672Z,0.83
2018-03-17T05:37:47.360Z,0.92
2018-03-17T05:40:22.336Z,0.82
2018-03-17T05:42:52.177Z,0.88
2018-03-17T05:45:21.385Z,1.00
2018-03-17T05:50:32.602Z,0.99
2018-03-17T05:53:05.554Z,0.99
2018-03-17T05:55:34.620Z,1.09
2018-03-17T05:58:04.067Z,1.11
2018-03-17T06:00:33.123Z,1.10
2018-03-17T06:03:02.176Z,1.27
2018-03-17T06:05:31.462Z,1.41
2018-03-17T06:10:37.956Z,1.46
2018-03-17T06:21:02.591Z,2.05
2018-03-17T06:23:31.684Z,1.94
2018-03-17T06:26:00.950Z,2.00
2018-03-17T06:28:30.001Z,1.90
2018-03-17T06:31:08.415Z,1.96
2018-03-17T06:33:37.584Z,1.96
2018-03-17T06:36:06.624Z,2.08
2018-03-17T06:38:36.402Z,2.59
2018-03-17T06:43:42.658Z,3.06
2018-03-17T06:46:19.494Z,3.32
2018-03-17T06:48:49.069Z,3.33
2018-03-17T06:51:18.110Z,3.09
2018-03-17T06:53:47.394Z,3.29
2018-03-17T06:58:52.560Z,3.52
2018-03-17T07:01:22.579Z,3.68
2018-03-17T07:03:51.623Z,3.79
2018-03-17T07:08:56.585Z,3.99
2018-03-17T07:11:33.818Z,4.00
2018-03-17T07:14:03.308Z,4.26
2018-03-17T07:16:32.371Z,4.56
2018-03-17T07:24:12.227Z,5.39
2018-03-17T07:26:43.906Z,5.33
2018-03-17T07:29:13.000Z,5.04
2018-03-17T07:31:42.063Z,4.64
2018-03-17T07:34:11.389Z,4.95
2018-03-17T07:36:40.468Z,4.73
2018-03-17T07:39:10.135Z,5.03
2018-03-17T07:41:39.192Z,5.23
2018-03-17T07:44:08.239Z,5.38
2018-03-17T07:46:37.644Z,5.32
2018-03-17T07:49:06.699Z,5.15
2018-03-17T07:51:36.228Z,5.23
2018-03-17T07:54:05.267Z,5.32
2018-03-17T07:56:34.328Z,5.06
2018-03-17T07:59:03.404Z,5.06
2018-03-17T08:01:32.428Z,5.05
2018-03-17T08:09:19.032Z,5.93
2018-03-17T08:11:51.763Z,6.23
2018-03-17T08:14:22.293Z,6.33
2018-03-17T08:16:51.330Z,6.83
2018-03-17T08:19:20.388Z,6.93
2018-03-17T08:24:25.067Z,7.04
2018-03-17T08:26:54.113Z,7.05
2018-03-17T08:29:23.166Z,6.97
2018-03-17T08:31:52.220Z,6.86
2018-03-17T08:34:21.254Z,7.10
2018-03-17T08:36:50.586Z,6.96
2018-03-17T08:39:19.682Z,7.41
2018-03-17T08:41:49.661Z,7.27
2018-03-17T08:44:18.738Z,7.29
2018-03-17T08:46:47.999Z,7.35
2018-03-17T08:49:17.134Z,7.28
2018-03-17T08:51:46.168Z,7.09
2018-03-17T08:54:16.038Z,7.16
2018-03-17T08:56:46.067Z,7.34
2018-03-17T08:59:17.252Z,7.26
2018-03-17T09:01:50.011Z,7.17
2018-03-17T09:04:20.252Z,7.28
2018-03-17T09:06:50.191Z,7.21
2018-03-17T09:09:19.242Z,7.05
2018-03-17T09:11:50.334Z,6.79
2018-03-17T09:14:19.383Z,6.95
2018-03-17T09:16:52.800Z,7.11
2018-03-17T09:19:22.755Z,7.29
2018-03-17T09:24:28.580Z,7.47
2018-03-17T09:29:36.957Z,7.57
2018-03-17T09:32:06.878Z,7.64
2018-03-17T09:34:35.926Z,7.65
2018-03-17T09:37:05.205Z,7.70
2018-03-17T09:39:34.243Z,7.78
2018-03-17T09:44:38.478Z,7.79
2018-03-17T09:47:08.538Z,7.78
2018-03-17T09:49:37.584Z,7.68
2018-03-17T09:52:06.668Z,8.02
2018-03-17T09:54:38.849Z,8.08
2018-03-17T09:57:07.920Z,8.17
2018-03-17T10:02:12.343Z,8.31
2018-03-17T10:07:16.670Z,7.95
2018-03-17T10:09:45.785Z,8.12
2018-03-17T10:12:16.296Z,7.98
2018-03-17T10:14:45.974Z,7.80
2018-03-17T10:17:15.175Z,7.92
2018-03-17T10:19:46.214Z,7.97
2018-03-17T10:22:15.264Z,7.88
2018-03-17T10:24:44.540Z,7.78
2018-03-17T10:27:13.772Z,7.78
2018-03-17T10:29:43.118Z,7.61
2018-03-17T10:32:12.227Z,7.53
2018-03-17T10:34:41.301Z,7.57
2018-03-17T10:37:10.349Z,7.40
2018-03-17T10:39:39.390Z,7.20
2018-03-17T10:42:08.795Z,7.26
2018-03-17T10:44:37.861Z,7.25
2018-03-17T10:49:45.919Z,7.35
2018-03-17T10:52:14.955Z,7.40
2018-03-17T10:54:44.004Z,7.20
2018-03-17T10:57:16.835Z,7.22
2018-03-17T10:59:47.210Z,7.16
2018-03-17T11:02:17.257Z,7.10
2018-03-17T11:04:46.240Z,6.96
2018-03-17T11:07:16.703Z,6.87
2018-03-17T11:09:45.783Z,6.92
2018-03-17T11:12:14.852Z,6.90
2018-03-17T11:14:44.199Z,6.91
2018-03-17T11:17:13.287Z,6.69
2018-03-17T11:19:42.335Z,6.67
2018-03-17T11:22:12.320Z,6.62
2018-03-17T11:24:41.542Z,6.70
2018-03-17T11:27:10.575Z,6.58
2018-03-17T11:29:40.006Z,6.65
2018-03-17T11:32:09.434Z,6.64
2018-03-17T11:34:38.487Z,6.63
2018-03-17T11:37:08.571Z,6.55
2018-03-17T11:39:37.788Z,6.43
2018-03-17T11:42:06.844Z,6.31
2018-03-17T11:44:36.779Z,6.28
2018-03-17T11:47:07.975Z,6.26
2018-03-17T11:49:37.064Z,6.21
2018-03-17T11:52:06.105Z,6.16
2018-03-17T11:54:36.764Z,6.19
2018-03-17T11:57:05.852Z,6.19
2018-03-17T11:59:34.914Z,6.12
2018-03-17T12:02:05.339Z,6.01
2018-03-17T12:04:44.150Z,6.01
2018-03-17T12:09:58.339Z,6.01
2018-03-17T12:12:30.203Z,5.96
2018-03-17T12:15:00.703Z,5.86
2018-03-17T12:17:38.835Z,5.95
2018-03-17T12:20:08.294Z,6.00
2018-03-17T12:22:39.306Z,5.90
2018-03-17T12:25:10.322Z,5.71
2018-03-17T12:27:47.744Z,5.69
2018-03-17T12:30:20.944Z,5.83
2018-03-17T12:32:50.028Z,5.89
2018-03-17T12:35:22.177Z,5.82
2018-03-17T12:37:51.736Z,5.78
2018-03-17T12:42:56.062Z,5.89
2018-03-17T12:45:33.638Z,5.81
2018-03-17T12:48:02.912Z,5.77
2018-03-17T12:50:44.006Z,5.81
2018-03-17T12:53:21.174Z,5.77
2018-03-17T12:55:58.668Z,5.64
2018-03-17T12:58:36.882Z,5.57
2018-03-17T13:01:16.164Z,5.63
2018-03-17T13:03:54.226Z,5.61
2018-03-17T13:06:32.651Z,5.52
2018-03-17T13:09:10.587Z,5.46
2018-03-17T13:11:47.508Z,5.41
2018-03-17T13:14:23.913Z,5.53
2018-03-17T13:17:01.608Z,5.46
2018-03-17T13:22:17.300Z,5.36
2018-03-17T13:24:57.099Z,5.41
2018-03-17T13:27:49.302Z,5.19
2018-03-17T13:30:26.744Z,5.11
2018-03-17T13:33:08.115Z,5.02
2018-03-17T13:36:00.248Z,5.08
2018-03-17T13:38:37.790Z,5.11
2018-03-17T13:43:52.371Z,5.09
2018-03-17T13:46:31.379Z,5.06
2018-03-17T13:49:07.882Z,5.08
2018-03-17T13:51:49.739Z,5.12
2018-03-17T13:54:29.667Z,5.02
2018-03-17T13:57:09.882Z,4.87
2018-03-17T13:59:47.976Z,4.88
2018-03-17T14:02:27.637Z,4.88
2018-03-17T14:07:46.297Z,4.88
2018-03-17T14:10:24.039Z,4.92
2018-03-17T14:13:00.390Z,4.87
2018-03-17T14:15:35.644Z,4.74
2018-03-17T14:18:04.710Z,4.70
2018-03-17T14:20:36.089Z,4.71
2018-03-17T14:23:05.211Z,4.69
2018-03-17T14:25:36.159Z,4.57
2018-03-17T14:28:05.204Z,4.70
2018-03-17T14:30:34.251Z,4.74
2018-03-17T14:33:04.387Z,4.76
2018-03-17T14:35:39.298Z,4.76
2018-03-17T14:38:08.518Z,4.65
2018-03-17T14:40:37.618Z,4.66
2018-03-17T14:43:06.686Z,4.74
2018-03-17T14:45:43.700Z,4.76
2018-03-17T14:48:12.751Z,4.68
2018-03-17T14:53:21.242Z,4.65
2018-03-17T14:55:57.295Z,4.73
2018-03-17T14:58:30.019Z,4.64
2018-03-17T15:01:06.909Z,4.55
2018-03-17T15:03:43.102Z,4.61
2018-03-17T15:06:15.242Z,4.60
2018-03-17T15:08:47.100Z,4.56
2018-03-17T15:11:18.449Z,4.46
2018-03-17T15:13:52.929Z,4.43
2018-03-17T15:16:24.457Z,4.49
2018-03-17T15:24:14.321Z,4.50
2018-03-17T15:26:46.498Z,4.40
2018-03-17T15:29:15.621Z,4.41
2018-03-17T15:31:44.695Z,4.40
2018-03-17T15:36:53.469Z,4.22
2018-03-17T15:42:03.790Z,4.12
2018-03-17T15:44:36.786Z,4.26
2018-03-17T15:47:09.433Z,4.14
2018-03-17T15:49:39.127Z,4.01
2018-03-17T15:52:08.172Z,3.94
2018-03-17T15:54:38.439Z,3.94
2018-03-17T15:59:48.105Z,4.01
2018-03-17T16:02:21.342Z,4.07
2018-03-17T16:04:56.251Z,3.89
2018-03-17T16:07:25.552Z,3.83
2018-03-17T16:09:55.835Z,3.77
2018-03-17T16:12:24.939Z,3.66
2018-03-17T16:14:55.773Z,3.55
2018-03-17T16:17:29.749Z,3.51
2018-03-17T16:20:06.366Z,3.59
2018-03-17T16:22:36.461Z,3.51
2018-03-17T16:25:13.318Z,3.40
2018-03-17T16:27:45.512Z,3.38
2018-03-17T16:30:14.567Z,3.42
2018-03-17T16:35:21.010Z,3.34
2018-03-17T16:37:50.975Z,3.29
2018-03-17T16:40:23.914Z,3.22
2018-03-17T16:42:53.175Z,3.27
2018-03-17T16:45:25.474Z,3.25
2018-03-17T16:48:10.071Z,3.19
2018-03-17T16:50:40.080Z,3.32
2018-03-17T16:53:09.153Z,3.22
2018-03-17T16:55:38.439Z,3.12
2018-03-17T16:58:12.240Z,3.07
2018-03-17T17:00:41.632Z,3.08
2018-03-17T17:05:49.239Z,3.09
2018-03-17T17:10:56.063Z,2.97
2018-03-17T17:13:29.699Z,2.99
2018-03-17T17:15:59.887Z,2.87
2018-03-17T17:18:31.199Z,2.99
2018-03-17T17:21:01.272Z,2.88
2018-03-17T17:26:05.511Z,2.91
2018-03-17T17:28:36.391Z,2.84
2018-03-17T17:31:06.735Z,2.87
2018-03-17T17:33:35.811Z,2.79
2018-03-17T17:36:09.137Z,2.75
2018-03-17T17:38:38.208Z,2.71
2018-03-17T17:41:07.391Z,2.77
2018-03-17T17:43:36.828Z,2.78
2018-03-17T17:46:06.040Z,2.72
2018-03-17T17:48:35.180Z,2.80
2018-03-17T17:51:04.371Z,2.61
2018-03-17T17:53:52.139Z,2.69
2018-03-17T17:56:29.109Z,2.59
2018-03-17T17:58:58.267Z,2.59
2018-03-17T18:04:06.354Z,2.65
2018-03-17T18:06:35.997Z,2.68
2018-03-17T18:09:09.095Z,2.63
2018-03-17T18:11:38.163Z,2.42
2018-03-17T18:14:08.776Z,2.44
2018-03-17T18:16:37.856Z,2.48
2018-03-17T18:19:14.029Z,2.48
2018-03-17T18:21:48.376Z,2.20
2018-03-17T18:24:17.410Z,2.19
2018-03-17T18:26:56.667Z,2.00
2018-03-17T18:29:25.778Z,2.03
2018-03-17T18:34:31.896Z,1.81
2018-03-17T18:37:10.026Z,1.63
2018-03-17T18:39:41.940Z,1.55
2018-03-17T18:42:19.407Z,1.60
2018-03-17T18:44:48.542Z,1.70
2018-03-17T18:47:19.836Z,1.65
2018-03-17T18:49:54.586Z,1.67
2018-03-17T18:52:26.796Z,1.64
2018-03-17T18:54:55.843Z,1.49
2018-03-17T18:57:25.696Z,1.56
2018-03-17T18:59:58.015Z,1.68
2018-03-17T19:05:06.934Z,1.60
2018-03-17T19:07:39.878Z,1.55
2018-03-17T19:10:11.330Z,1.55
2018-03-17T19:12:41.593Z,1.63
2018-03-17T19:15:11.477Z,1.46
2018-03-17T19:17:41.495Z,1.45
2018-03-17T19:20:10.794Z,1.47
2018-03-17T19:22:39.871Z,1.46
2018-03-17T19:25:08.981Z,1.53
2018-03-17T19:27:38.049Z,1.57
2018-03-17T19:30:08.088Z,1.63
2018-03-17T19:32:41.373Z,1.44
2018-03-17T19:35:13.956Z,1.43
2018-03-17T19:37:43.075Z,1.44
2018-03-17T19:40:12.235Z,1.50
2018-03-17T19:42:45.115Z,1.36
2018-03-17T19:45:14.760Z,1.43
2018-03-17T19:47:45.878Z,1.37
2018-03-17T19:50:15.341Z,1.43
2018-03-17T19:52:45.164Z,1.45
2018-03-17T19:57:55.042Z,1.30
2018-03-17T20:00:26.623Z,1.41
2018-03-17T20:03:00.597Z,1.41
2018-03-17T20:05:31.237Z,1.45
2018-03-17T20:08:04.279Z,1.50
2018-03-17T20:10:34.067Z,1.46
2018-03-17T20:13:08.301Z,1.29
2018-03-17T20:15:37.736Z,1.28
2018-03-17T20:18:07.751Z,1.44
2018-03-17T20:20:38.264Z,1.32
2018-03-17T20:23:09.391Z,1.43
2018-03-17T20:25:39.677Z,1.32
2018-03-17T20:28:11.309Z,1.39
2018-03-17T20:30:40.616Z,1.39
2018-03-17T20:33:09.910Z,1.42
2018-03-17T20:35:42.642Z,1.24
2018-03-17T20:38:12.636Z,1.33
2018-03-17T20:40:43.835Z,1.35
2018-03-17T20:43:15.428Z,1.44
2018-03-17T20:45:49.613Z,1.46
2018-03-17T20:48:23.351Z,1.36
2018-03-17T20:50:57.086Z,1.44
2018-03-17T20:58:39.784Z,1.39
2018-03-17T21:03:45.356Z,1.45
2018-03-17T21:08:51.265Z,1.35
2018-03-17T21:11:21.283Z,1.46
2018-03-17T21:13:54.661Z,1.22
2018-03-17T21:16:26.474Z,1.32
2018-03-17T21:19:01.508Z,1.25
2018-03-17T21:24:08.680Z,1.33
2018-03-17T21:26:38.127Z,1.23
2018-03-17T21:31:43.872Z,1.10
2018-03-17T21:36:48.332Z,0.95
2018-03-17T21:39:21.583Z,1.01
2018-03-17T21:41:53.103Z,0.91
2018-03-17T21:44:26.987Z,0.60
2018-03-17T21:47:00.351Z,0.43
2018-03-17T21:49:31.674Z,0.54
2018-03-17T21:52:00.720Z,0.47
2018-03-17T21:57:16.939Z,0.43
2018-03-17T22:02:35.818Z,0.36
2018-03-17T22:05:06.489Z,0.44
2018-03-17T22:07:35.601Z,0.48
2018-03-17T22:10:05.725Z,0.49
2018-03-17T22:12:34.788Z,0.36
2018-03-17T22:15:04.228Z,0.32
2018-03-17T22:20:11.474Z,0.61
2018-03-17T22:22:40.603Z,0.68
2018-03-17T22:25:11.682Z,0.46
2018-03-17T22:27:40.721Z,0.42
2018-03-17T22:30:13.478Z,0.49
2018-03-17T22:32:42.537Z,0.58
2018-03-17T22:35:11.912Z,0.38
2018-03-17T22:37:40.994Z,0.04
2018-03-17T22:40:10.077Z,0.21
2018-03-17T22:42:39.444Z,0.29
2018-03-17T22:45:09.054Z,0.34
2018-03-17T22:47:38.893Z,0.05
2018-03-17T22:50:08.439Z,0.21
2018-03-17T22:52:38.756Z,0.34
2018-03-17T22:55:17.091Z,0.23
2018-03-17T22:57:46.189Z,0.32
2018-03-17T23:00:16.192Z,0.30
2018-03-17T23:02:45.445Z,0.26
2018-03-17T23:07:50.325Z,0.18
2018-03-17T23:10:20.477Z,0.22
2018-03-17T23:12:49.554Z,0.13
2018-03-17T23:15:36.938Z,0.17
2018-03-17T23:18:06.331Z,0.10
2018-03-17T23:20:36.299Z,0.20
2018-03-17T23:23:05.362Z,0.28
2018-03-17T23:25:34.428Z,0.29
2018-03-17T23:28:04.379Z,0.25
2018-03-17T23:30:33.448Z,0.19
2018-03-17T23:33:07.486Z,0.36
2018-03-17T23:35:36.568Z,0.45
2018-03-17T23:40:43.844Z,0.32
2018-03-17T23:43:18.585Z,0.36
2018-03-17T23:45:47.754Z,0.36
2018-03-17T23:48:16.830Z,0.29
2018-03-17T23:50:45.895Z,0.40
2018-03-17T23:55:57.471Z,0.30
